Time;durP1;ratioP1;P1;durP2;ratioP2;P2;SDS_P1;SDS_P2;PMS_P1;PMS_P2;Temp;Humidity;BMP_temperature;BMP_pressure;BME280_temperature;BME280_humidity;BME280_pressure;Samples;Min_cycle;Max_cycle;Signal;HPM_P1;HPM_P2
2021/03/02 00:02:13;;;;;;;41.50;18.48;;;;;;;4.59;59.27;96047.59;5013046;28;20668;-67
2021/03/02 00:04:42;;;;;;;37.67;18.48;;;;;;;4.99;58.79;96050.94;5012762;28;20172;-69
2021/03/02 00:07:07;;;;;;;37.13;17.83;;;;;;;5.28;58.17;96050.91;5011587;28;20180;-68
2021/03/02 00:09:33;;;;;;;35.03;17.87;;;;;;;5.37;57.55;96057.13;4994958;28;20696;-69
2021/03/02 00:11:58;;;;;;;35.33;18.13;;;;;;;5.60;56.66;96052.09;5012941;28;20205;-69
2021/03/02 00:14:24;;;;;;;36.93;17.23;;;;;;;5.74;56.31;96056.44;5012722;28;20584;-69
2021/03/02 00:16:57;;;;;;;31.53;17.53;;;;;;;5.80;55.84;96043.88;5012908;28;20177;-69
2021/03/02 00:19:27;;;;;;;33.17;17.38;;;;;;;5.88;56.35;96051.19;4994469;28;20250;-69
2021/03/02 00:21:58;;;;;;;37.27;18.13;;;;;;;5.81;56.15;96048.91;5011584;28;20227;-69
2021/03/02 00:24:28;;;;;;;36.17;18.80;;;;;;;5.95;55.68;96040.25;5011307;28;20985;-68
2021/03/02 00:26:54;;;;;;;36.83;17.55;;;;;;;6.03;55.90;96042.28;4995616;28;20185;-68
2021/03/02 00:29:20;;;;;;;40.63;18.97;;;;;;;5.96;56.00;96039.22;5011158;28;20640;-68
2021/03/02 00:31:45;;;;;;;37.70;19.50;;;;;;;5.81;56.45;96034.88;5011256;28;20201;-68
2021/03/02 00:34:11;;;;;;;39.90;19.47;;;;;;;5.47;57.28;96043.00;5011105;28;20173;-69
2021/03/02 00:36:36;;;;;;;41.83;17.67;;;;;;;5.84;56.80;96042.25;5012376;28;20272;-68
2021/03/02 00:39:02;;;;;;;38.93;18.87;;;;;;;5.92;56.87;96038.97;5012394;28;20169;-72
2021/03/02 00:41:28;;;;;;;36.13;18.23;;;;;;;5.71;56.38;96038.44;5012159;28;20173;-69
2021/03/02 00:43:53;;;;;;;38.93;18.33;;;;;;;5.23;57.43;96030.56;5012418;28;20609;-68
2021/03/02 00:46:20;;;;;;;42.77;20.90;;;;;;;4.58;59.72;96030.16;5012159;28;20193;-71
2021/03/02 00:48:45;;;;;;;41.38;18.70;;;;;;;4.23;60.72;96020.66;5011197;28;20632;-69
2021/03/02 00:51:11;;;;;;;42.40;19.33;;;;;;;4.53;59.98;96029.41;5011451;28;20227;-69
2021/03/02 00:53:37;;;;;;;42.00;18.90;;;;;;;4.85;58.81;96026.22;5012203;28;20212;-69
2021/03/02 00:56:02;;;;;;;33.73;18.27;;;;;;;5.00;57.93;96032.13;5011779;28;20177;-72
2021/03/02 00:58:28;;;;;;;38.73;18.57;;;;;;;5.08;58.06;96032.59;5012128;28;20636;-68
2021/03/02 01:00:53;;;;;;;40.03;19.73;;;;;;;5.41;56.96;96034.31;5011911;28;20551;-69
2021/03/02 01:03:19;;;;;;;41.90;18.77;;;;;;;5.46;56.06;96030.81;5012046;28;20204;-69
2021/03/02 01:05:44;;;;;;;41.23;20.53;;;;;;;5.49;56.74;96025.72;5010746;28;20177;-69
2021/03/02 01:08:10;;;;;;;45.53;21.63;;;;;;;5.52;56.36;96029.69;5011859;28;20177;-69
2021/03/02 01:10:35;;;;;;;38.33;20.77;;;;;;;5.45;56.86;96029.25;5010336;28;20284;-69
2021/03/02 01:13:01;;;;;;;39.47;19.93;;;;;;;5.75;56.25;96030.72;5011723;28;20636;-69
2021/03/02 01:15:26;;;;;;;42.90;21.43;;;;;;;5.24;57.79;96018.88;5011946;28;20172;-69
2021/03/02 01:17:52;;;;;;;44.60;21.57;;;;;;;5.19;57.46;96020.81;5011826;28;20184;-69
2021/03/02 01:20:17;;;;;;;41.80;22.63;;;;;;;4.99;58.25;96029.75;5011952;28;20219;-69
2021/03/02 01:22:43;;;;;;;45.13;22.93;;;;;;;5.14;57.19;96032.25;5011573;28;20165;-69
2021/03/02 01:25:12;;;;;;;43.13;22.50;;;;;;;5.46;57.46;96028.97;5011896;28;20179;-69
2021/03/02 01:27:37;;;;;;;44.08;23.23;;;;;;;5.63;56.49;96025.03;5010642;28;20746;-69
2021/03/02 01:30:10;;;;;;;45.27;23.00;;;;;;;4.78;58.80;96014.09;5010477;28;20268;-69
2021/03/02 01:32:36;;;;;;;46.60;22.15;;;;;;;5.11;57.85;96016.94;5011746;28;20204;-68
2021/03/02 01:35:06;;;;;;;41.63;20.50;;;;;;;5.20;57.91;96003.84;5011536;28;20647;-69
2021/03/02 01:37:31;;;;;;;44.47;20.75;;;;;;;4.70;59.11;96006.75;5011652;28;20176;-72
2021/03/02 01:39:57;;;;;;;41.00;20.97;;;;;;;4.99;58.28;95993.50;5011476;28;20169;-69
2021/03/02 01:42:22;;;;;;;44.40;21.87;;;;;;;5.28;58.23;96005.88;5011703;28;20173;-68
2021/03/02 01:44:48;;;;;;;44.47;20.40;;;;;;;5.36;57.54;96007.09;5011466;28;20169;-68
2021/03/02 01:47:13;;;;;;;42.37;20.90;;;;;;;5.34;56.67;96018.00;5011673;28;20194;-68
2021/03/02 01:49:38;;;;;;;37.20;20.23;;;;;;;5.12;58.08;96012.44;5011337;28;20214;-69
2021/03/02 01:52:04;;;;;;;42.57;18.63;;;;;;;4.81;58.30;96004.78;5011247;28;20256;-71
2021/03/02 01:54:29;;;;;;;41.77;20.97;;;;;;;4.85;58.30;96005.81;5011402;28;20196;-69
2021/03/02 01:56:55;;;;;;;41.60;19.50;;;;;;;5.09;57.74;96002.38;4994209;28;20169;-72
2021/03/02 01:59:20;;;;;;;42.27;20.00;;;;;;;5.18;57.94;96006.00;5011633;28;20193;-68
2021/03/02 02:01:46;;;;;;;36.47;17.83;;;;;;;4.87;58.33;96006.31;5011311;28;20204;-68
2021/03/02 02:04:18;;;;;;;37.70;19.67;;;;;;;5.11;57.63;96002.91;5010256;28;20232;-69
2021/03/02 02:06:52;;;;;;;37.67;18.17;;;;;;;5.22;58.67;95996.44;5010673;28;20272;-68
2021/03/02 02:09:29;;;;;;;33.25;17.05;;;;;;;5.36;57.68;95996.50;5014079;28;20177;-69
2021/03/02 02:12:00;;;;;;;39.72;19.70;;;;;;;4.77;59.28;95998.50;5015163;28;20649;-68
2021/03/02 02:14:34;;;;;;;34.55;17.70;;;;;;;4.16;61.02;96001.69;4997957;28;20181;-68
2021/03/02 02:17:01;;;;;;;37.50;18.02;;;;;;;4.25;60.30;95992.88;4997568;28;20228;-68
2021/03/02 02:19:33;;;;;;;33.78;17.70;;;;;;;4.24;60.35;95991.31;4997537;28;20663;-68
2021/03/02 02:22:34;;;;;;;33.45;16.55;;;;;;;4.27;59.92;95989.19;5015032;28;20667;-68
2021/03/02 02:25:22;;;;;;;29.08;15.50;;;;;;;4.41;59.06;95985.59;5014729;28;20184;-68
2021/03/02 02:27:50;;;;;;;31.50;16.27;;;;;;;4.75;58.64;95992.69;5013625;28;20223;-69
2021/03/02 02:30:16;;;;;;;29.70;15.18;;;;;;;4.84;57.70;96014.84;5013517;28;20247;-68
2021/03/02 02:32:41;;;;;;;34.57;17.40;;;;;;;4.87;58.03;96016.13;5014829;28;20204;-67
2021/03/02 02:35:07;;;;;;;29.50;16.17;;;;;;;4.48;59.19;96015.16;4997103;28;20173;-72
2021/03/02 02:37:32;;;;;;;35.77;18.67;;;;;;;4.58;59.07;96010.84;5013732;28;20589;-68
2021/03/02 02:39:58;;;;;;;34.23;19.13;;;;;;;4.77;58.40;96009.88;4996950;28;20272;-68
2021/03/02 02:42:23;;;;;;;41.43;21.07;;;;;;;4.66;58.75;96013.69;5014555;28;20181;-68
2021/03/02 02:44:49;;;;;;;38.70;20.23;;;;;;;4.71;58.51;96018.13;5013188;28;20262;-68
2021/03/02 02:47:15;;;;;;;37.03;19.27;;;;;;;4.20;60.02;96010.63;4997106;28;20174;-68
2021/03/02 02:49:40;;;;;;;35.22;18.20;;;;;;;4.43;59.66;96004.66;5013060;28;20263;-69
2021/03/02 02:52:06;;;;;;;41.20;18.17;;;;;;;4.82;58.59;96013.53;4996742;28;20355;-70
2021/03/02 02:54:31;;;;;;;39.73;18.83;;;;;;;4.44;59.02;96008.88;5013389;28;20188;-68
2021/03/02 02:56:57;;;;;;;36.77;17.40;;;;;;;4.06;60.87;96017.63;5012949;28;20669;-69
2021/03/02 02:59:29;;;;;;;32.60;17.00;;;;;;;3.89;61.12;96008.22;5013187;28;20224;-68
2021/03/02 03:01:59;;;;;;;32.45;18.25;;;;;;;3.81;61.02;96014.06;5013050;28;20173;-68
2021/03/02 03:04:31;;;;;;;33.88;17.70;;;;;;;3.96;60.95;96027.19;5013099;28;20189;-70
2021/03/02 03:06:57;;;;;;;35.50;17.80;;;;;;;4.20;59.48;96021.22;4996817;28;20177;-69
2021/03/02 03:09:22;;;;;;;30.98;16.27;;;;;;;4.36;59.00;96016.59;5013073;28;20276;-68
2021/03/02 03:11:56;;;;;;;35.27;18.13;;;;;;;4.31;59.66;96027.22;5012520;28;20304;-68
2021/03/02 03:14:21;;;;;;;40.70;17.98;;;;;;;3.64;61.87;96030.28;5012863;28;20175;-68
2021/03/02 03:16:47;;;;;;;35.90;17.60;;;;;;;3.94;61.16;96037.25;5012772;28;20180;-68
2021/03/02 03:19:17;;;;;;;32.40;17.07;;;;;;;4.29;59.76;96034.66;5011698;28;20188;-68
2021/03/02 03:21:43;;;;;;;34.72;17.88;;;;;;;4.28;59.60;96030.44;5012607;28;20527;-68
2021/03/02 03:24:08;;;;;;;32.83;15.77;;;;;;;4.44;59.12;96032.66;5012691;28;20185;-68
2021/03/02 03:26:34;;;;;;;31.00;16.13;;;;;;;4.43;59.03;96032.94;4996101;28;20188;-68
2021/03/02 03:29:00;;;;;;;30.30;15.33;;;;;;;4.32;59.09;96013.72;4996369;28;20219;-72
2021/03/02 03:31:25;;;;;;;30.93;16.60;;;;;;;4.43;58.77;96025.81;5012476;28;20666;-69
2021/03/02 03:33:51;;;;;;;35.00;16.90;;;;;;;4.66;58.48;96036.72;5012341;28;20173;-70
2021/03/02 03:36:16;;;;;;;29.60;15.20;;;;;;;4.80;58.47;96026.25;4996228;28;20173;-69
2021/03/02 03:38:42;;;;;;;37.43;18.33;;;;;;;4.78;58.01;96035.28;4995857;28;20177;-69
2021/03/02 03:41:07;;;;;;;39.27;18.10;;;;;;;4.87;57.66;96037.28;5013563;28;20176;-69
2021/03/02 03:43:33;;;;;;;35.37;18.37;;;;;;;4.83;58.21;96045.03;5013218;28;20169;-69
2021/03/02 03:45:58;;;;;;;39.27;18.23;;;;;;;4.81;57.39;96043.72;5013451;28;20543;-70
2021/03/02 03:48:24;;;;;;;31.87;17.17;;;;;;;4.54;58.10;96038.91;5013280;28;20173;-69
2021/03/02 03:50:50;;;;;;;30.77;16.17;;;;;;;4.53;58.44;96042.63;5011595;28;20185;-70
2021/03/02 03:53:16;;;;;;;27.40;16.00;;;;;;;4.63;58.07;96039.91;4993884;28;20355;-68
2021/03/02 03:55:42;;;;;;;35.10;18.38;;;;;;;4.62;58.52;96044.41;4994975;28;20419;-70
2021/03/02 03:58:08;;;;;;;30.77;16.48;;;;;;;4.64;58.25;96041.47;5011888;28;20169;-70
2021/03/02 04:00:34;;;;;;;31.70;16.50;;;;;;;4.53;58.46;96045.28;5011768;28;20716;-69
2021/03/02 04:02:59;;;;;;;30.20;15.30;;;;;;;4.45;58.55;96047.47;5012034;28;20177;-70
2021/03/02 04:05:25;;;;;;;33.63;16.47;;;;;;;4.16;59.57;96047.44;5011471;28;20173;-71
2021/03/02 04:07:51;;;;;;;31.23;15.60;;;;;;;4.29;59.58;96048.66;5011927;28;20169;-70
2021/03/02 04:10:16;;;;;;;32.72;16.98;;;;;;;4.38;59.02;96047.00;5011701;28;20227;-69
2021/03/02 04:12:44;;;;;;;26.87;15.73;;;;;;;4.41;59.08;96049.06;5012824;28;20623;-69
2021/03/02 04:15:12;;;;;;;32.00;17.30;;;;;;;4.34;58.77;96055.75;5011440;28;20703;-71
2021/03/02 04:17:38;;;;;;;31.60;14.75;;;;;;;4.27;59.30;96050.78;5013068;28;20189;-70
2021/03/02 04:20:06;;;;;;;31.17;16.27;;;;;;;4.30;59.35;96044.16;5012590;28;20203;-70
2021/03/02 04:22:35;;;;;;;34.97;17.30;;;;;;;4.22;59.63;96048.19;5012737;28;20200;-68
2021/03/02 04:25:00;;;;;;;35.15;17.55;;;;;;;3.97;60.05;96035.91;5012832;28;20177;-71
2021/03/02 04:27:26;;;;;;;35.03;17.97;;;;;;;3.71;60.86;96045.88;5011240;28;20203;-69
2021/03/02 04:29:51;;;;;;;30.17;17.33;;;;;;;3.54;61.79;96037.50;5012373;28;20589;-69
2021/03/02 04:32:17;;;;;;;33.50;16.60;;;;;;;3.67;60.91;96047.47;5012344;28;20707;-73
2021/03/02 04:34:42;;;;;;;33.80;16.60;;;;;;;3.85;60.72;96043.41;5012546;28;20169;-69
2021/03/02 04:37:08;;;;;;;31.50;16.43;;;;;;;3.86;60.72;96039.69;5012328;28;20212;-69
2021/03/02 04:39:33;;;;;;;35.07;17.07;;;;;;;3.94;60.75;96045.19;5012600;28;20560;-71
2021/03/02 04:41:59;;;;;;;34.10;16.60;;;;;;;3.94;60.33;96053.13;5027315;28;20181;-70
2021/03/02 04:44:24;;;;;;;30.20;15.90;;;;;;;4.17;59.58;96054.28;5012345;28;20261;-74
2021/03/02 04:46:50;;;;;;;30.53;14.97;;;;;;;4.23;59.96;96049.75;5012227;28;20169;-73
2021/03/02 04:49:15;;;;;;;32.73;15.80;;;;;;;4.21;59.92;96046.59;5012317;28;20173;-69
2021/03/02 04:51:41;;;;;;;32.33;17.20;;;;;;;4.08;59.98;96055.94;5012092;28;20209;-74
2021/03/02 04:54:06;;;;;;;31.47;15.70;;;;;;;4.07;59.66;96046.41;5012047;28;20212;-74
2021/03/02 04:56:32;;;;;;;28.13;15.93;;;;;;;4.05;60.52;96059.13;5012291;28;20168;-70
2021/03/02 04:58:57;;;;;;;33.40;17.20;;;;;;;3.79;60.63;96055.84;5011878;28;20173;-70
2021/03/02 05:01:23;;;;;;;35.40;18.43;;;;;;;3.79;60.96;96055.06;5012059;28;20671;-70
2021/03/02 05:03:48;;;;;;;39.03;18.57;;;;;;;3.44;61.80;96054.19;5012070;28;20215;-72
2021/03/02 05:06:13;;;;;;;36.63;17.57;;;;;;;2.89;64.33;96051.44;5011986;28;20714;-72
2021/03/02 05:08:39;;;;;;;35.37;18.97;;;;;;;2.68;65.41;96052.53;5011862;28;20173;-71
2021/03/02 05:11:04;;;;;;;59.40;19.20;;;;;;;2.72;65.65;96053.56;5012373;28;20713;-69
2021/03/02 05:13:30;;;;;;;38.27;19.13;;;;;;;3.43;63.11;96063.94;5011892;28;20220;-71
2021/03/02 05:15:55;;;;;;;36.23;18.00;;;;;;;3.87;61.75;96065.03;5011629;28;20635;-72
2021/03/02 05:18:21;;;;;;;33.50;17.27;;;;;;;4.07;61.34;96070.22;5012102;28;20181;-73
2021/03/02 05:20:46;;;;;;;39.47;18.43;;;;;;;4.16;61.37;96065.16;5011782;28;20220;-72
2021/03/02 05:23:12;;;;;;;35.70;17.50;;;;;;;4.23;60.72;96062.97;5011883;28;20173;-69
2021/03/02 05:25:37;;;;;;;32.97;17.37;;;;;;;4.35;60.56;96078.50;5011521;28;20257;-72
2021/03/02 05:28:03;;;;;;;32.80;17.13;;;;;;;4.23;60.09;96079.63;5011839;28;20169;-69
2021/03/02 05:30:28;;;;;;;38.20;18.90;;;;;;;4.25;60.70;96074.06;5011498;28;20264;-68
2021/03/02 05:32:54;;;;;;;33.97;16.53;;;;;;;4.43;59.55;96078.69;5011719;28;20208;-68
2021/03/02 05:35:19;;;;;;;32.90;18.20;;;;;;;4.44;60.84;96080.28;5011497;28;20200;-69
2021/03/02 05:37:45;;;;;;;37.13;18.00;;;;;;;4.35;60.69;96071.34;5011572;28;20177;-69
2021/03/02 05:40:11;;;;;;;34.50;19.67;;;;;;;4.51;59.36;96075.44;5012097;28;20173;-68
2021/03/02 05:42:36;;;;;;;42.95;19.73;;;;;;;4.69;58.97;96075.84;5013635;28;20185;-67
2021/03/02 05:45:05;;;;;;;56.20;21.93;;;;;;;4.66;58.63;96084.34;5015638;28;20181;-68
2021/03/02 05:47:33;;;;;;;47.33;19.17;;;;;;;4.75;58.67;96074.72;5014341;28;20177;-68
2021/03/02 05:49:59;;;;;;;43.97;19.58;;;;;;;4.76;58.19;96076.28;4998206;28;20188;-69
2021/03/02 05:52:25;;;;;;;44.42;20.05;;;;;;;4.64;58.57;96073.22;5013958;28;20232;-71
2021/03/02 05:54:52;;;;;;;60.27;25.17;;;;;;;4.67;58.12;96070.81;5014499;28;20181;-68
2021/03/02 05:57:17;;;;;;;47.03;21.63;;;;;;;4.80;57.74;96090.56;5014074;28;20188;-70
2021/03/02 05:59:43;;;;;;;49.20;20.70;;;;;;;4.61;58.60;96093.09;5015511;28;20181;-69
2021/03/02 06:02:08;;;;;;;43.47;20.73;;;;;;;4.80;58.47;96084.47;5013733;28;20288;-72
2021/03/02 06:04:34;;;;;;;44.10;20.67;;;;;;;4.81;58.18;96081.53;5014124;28;20184;-70
2021/03/02 06:07:03;;;;;;;44.77;21.97;;;;;;;4.74;58.51;96083.72;5015322;28;20203;-69
2021/03/02 06:09:29;;;;;;;44.30;21.80;;;;;;;4.77;59.22;96083.19;5015087;28;20686;-71
2021/03/02 06:12:04;;;;;;;44.75;20.58;;;;;;;4.86;58.55;96092.09;5015154;28;20684;-73
2021/03/02 06:14:32;;;;;;;53.70;21.65;;;;;;;4.98;57.77;96089.06;5014628;28;20735;-75
2021/03/02 06:16:58;;;;;;;37.90;17.95;;;;;;;5.01;58.82;96089.31;5014021;28;20556;-68
2021/03/02 06:19:38;;;;;;;32.37;17.70;;;;;;;4.97;58.90;96090.91;5013718;28;20181;-68
2021/03/02 06:22:04;;;;;;;32.95;15.90;;;;;;;4.91;57.58;96094.69;5015004;28;20676;-69
2021/03/02 06:24:39;;;;;;;37.57;15.50;;;;;;;4.99;58.40;96087.97;5014858;28;20180;-70
2021/03/02 06:27:14;;;;;;;32.53;17.35;;;;;;;5.11;58.48;96099.00;5014840;28;20664;-68
2021/03/02 06:29:40;;;;;;;36.25;16.40;;;;;;;5.14;57.65;96084.41;5014789;28;20263;-69
2021/03/02 06:32:06;;;;;;;35.97;16.13;;;;;;;5.19;57.31;96093.09;5014762;28;20339;-71
2021/03/02 06:34:31;;;;;;;34.63;15.87;;;;;;;5.01;57.89;96096.47;4997153;28;20269;-69
2021/03/02 06:37:01;;;;;;;30.53;15.57;;;;;;;5.20;57.30;96101.81;5014755;28;20182;-68
2021/03/02 06:39:31;;;;;;;42.33;16.35;;;;;;;5.38;56.95;96103.72;5014567;28;20188;-68
2021/03/02 06:42:21;;;;;;;27.15;13.88;;;;;;;5.43;57.14;96108.97;5014594;28;20177;-68
2021/03/02 06:44:48;;;;;;;30.17;15.90;;;;;;;5.34;57.22;96101.97;4973256;28;20736;-68
2021/03/02 06:47:15;;;;;;;24.00;13.10;;;;;;;5.14;58.35;96101.09;4957387;28;20186;-68
2021/03/02 06:49:42;;;;;;;22.53;12.20;;;;;;;5.47;56.13;96106.56;4972981;28;20665;-72
2021/03/02 06:52:26;;;;;;;32.80;14.32;;;;;;;5.70;56.26;96099.66;4973059;28;20519;-72
2021/03/02 06:54:52;;;;;;;42.30;18.40;;;;;;;6.07;56.73;96114.88;4957054;28;20179;-68
2021/03/02 06:57:24;;;;;;;34.10;17.67;;;;;;;6.12;56.15;96111.34;4973121;28;21092;-69
2021/03/02 06:59:52;;;;;;;36.07;18.80;;;;;;;6.41;54.22;96108.56;4972969;28;20221;-73
2021/03/02 07:02:37;;;;;;;34.30;17.98;;;;;;;6.68;54.00;96106.03;4973038;28;20582;-73
2021/03/02 07:05:11;;;;;;;40.23;19.67;;;;;;;6.85;54.33;96103.63;4972491;28;20627;-73
2021/03/02 07:07:41;;;;;;;34.83;18.40;;;;;;;6.94;52.98;96094.97;4972850;28;20433;-69
2021/03/02 07:10:07;;;;;;;33.87;18.57;;;;;;;6.69;53.51;96102.28;4973010;28;20426;-69
2021/03/02 07:12:37;;;;;;;40.87;19.17;;;;;;;6.89;53.07;96099.28;4972693;28;20481;-73
2021/03/02 07:15:06;;;;;;;42.57;18.77;;;;;;;6.84;53.80;96103.91;4972984;28;20774;-70
2021/03/02 07:17:32;;;;;;;44.27;19.30;;;;;;;7.16;52.23;96079.97;4972634;28;20976;-70
2021/03/02 07:19:58;;;;;;;35.63;18.67;;;;;;;7.42;51.89;96088.25;4972890;28;20452;-69
2021/03/02 07:22:25;;;;;;;35.83;18.27;;;;;;;7.55;51.24;96096.53;4999546;28;20236;-68
2021/03/02 07:24:54;;;;;;;35.07;17.40;;;;;;;7.59;50.42;96092.97;5012711;28;20235;-72
2021/03/02 07:27:21;;;;;;;36.20;18.97;;;;;;;7.56;51.30;96090.91;5012792;28;20416;-69
2021/03/02 07:29:48;;;;;;;35.00;18.50;;;;;;;7.65;50.83;96089.13;5012187;28;20801;-72
2021/03/02 07:32:13;;;;;;;36.70;19.17;;;;;;;7.71;51.44;96092.47;5012380;28;20517;-69
2021/03/02 07:34:41;;;;;;;43.30;18.47;;;;;;;7.78;51.33;96092.88;5012379;28;20424;-71
2021/03/02 07:37:06;;;;;;;33.97;17.00;;;;;;;7.69;51.53;96092.00;5012382;28;20212;-73
2021/03/02 07:39:31;;;;;;;36.97;18.00;;;;;;;7.98;51.14;96088.22;5012275;28;20455;-71
2021/03/02 07:41:57;;;;;;;31.80;17.53;;;;;;;8.16;50.23;96097.94;5012432;28;20185;-72
2021/03/02 07:44:23;;;;;;;37.40;17.43;;;;;;;8.26;50.26;96091.59;5013366;28;20212;-69
2021/03/02 07:46:50;;;;;;;29.53;15.93;;;;;;;7.96;50.61;96091.94;5013521;28;20181;-72
2021/03/02 07:49:28;;;;;;;30.77;15.97;;;;;;;7.93;49.54;96089.13;5011916;28;20268;-72
2021/03/02 07:52:00;;;;;;;37.33;16.00;;;;;;;7.49;49.89;96085.19;5013120;28;20907;-71
2021/03/02 07:54:26;;;;;;;32.03;16.33;;;;;;;7.38;51.18;96087.28;5013099;28;20426;-70
2021/03/02 07:57:16;;;;;;;36.77;16.43;;;;;;;7.46;50.62;96085.00;5013165;28;20412;-70
2021/03/02 07:59:45;;;;;;;34.67;15.40;;;;;;;7.60;51.06;96083.91;5012892;28;20652;-73
2021/03/02 08:02:19;;;;;;;27.20;14.93;;;;;;;7.80;50.13;96079.25;5013226;28;20420;-69
2021/03/02 08:04:45;;;;;;;29.60;14.83;;;;;;;7.80;49.08;96068.63;5011061;28;20481;-68
2021/03/02 08:07:24;;;;;;;33.10;15.20;;;;;;;8.03;49.15;96080.13;5013093;28;20926;-70
2021/03/02 08:09:50;;;;;;;29.63;13.20;;;;;;;8.07;48.40;96079.22;5012836;28;20828;-73
2021/03/02 08:12:26;;;;;;;25.23;12.50;;;;;;;8.02;48.05;96086.53;5011580;28;20815;-72
2021/03/02 08:14:51;;;;;;;30.00;14.23;;;;;;;8.10;47.49;96081.28;5012735;28;20430;-69
2021/03/02 08:17:21;;;;;;;28.77;14.60;;;;;;;8.29;48.32;96075.81;5012892;28;20416;-72
2021/03/02 08:19:51;;;;;;;32.27;14.90;;;;;;;8.49;48.04;96085.25;5012606;28;20188;-71
2021/03/02 08:22:19;;;;;;;33.03;14.87;;;;;;;8.54;47.30;96079.81;5012822;28;20423;-69
2021/03/02 08:25:02;;;;;;;31.33;16.37;;;;;;;8.73;46.66;96084.94;5027635;28;20438;-69
2021/03/02 08:27:40;;;;;;;29.10;15.67;;;;;;;8.93;46.01;96087.09;5012726;28;20451;-69
2021/03/02 08:30:10;;;;;;;27.67;13.37;;;;;;;9.09;45.49;96087.53;5012777;28;20424;-69
2021/03/02 08:32:36;;;;;;;26.40;13.07;;;;;;;9.09;44.74;96076.84;5012718;28;20503;-69
2021/03/02 08:35:05;;;;;;;27.07;13.37;;;;;;;9.24;44.72;96079.09;5011259;28;20456;-69
2021/03/02 08:37:44;;;;;;;28.30;13.30;;;;;;;9.41;44.72;96073.06;5012558;28;20261;-69
2021/03/02 08:40:14;;;;;;;32.43;14.30;;;;;;;9.53;44.22;96075.91;5011053;28;20925;-72
2021/03/02 08:43:13;;;;;;;27.43;11.57;;;;;;;9.33;43.67;96068.50;5012431;28;20450;-74
2021/03/02 08:45:57;;;;;;;22.60;11.47;;;;;;;9.28;43.64;96069.41;4971100;28;20445;-69
2021/03/02 08:48:28;;;;;;;22.50;12.40;;;;;;;9.49;42.78;96064.31;4971061;28;20545;-70
2021/03/02 08:51:04;;;;;;;25.73;12.50;;;;;;;9.81;42.43;96060.47;4970910;28;20437;-70
2021/03/02 08:53:37;;;;;;;21.43;11.07;;;;;;;10.01;41.44;96071.66;4970851;28;20473;-70
2021/03/02 08:56:23;;;;;;;16.13;9.97;;;;;;;9.92;40.23;96060.97;4971115;28;20438;-69
2021/03/02 08:59:03;;;;;;;22.93;11.67;;;;;;;9.92;40.38;96060.97;4970866;28;20429;-73
2021/03/02 09:01:38;;;;;;;15.77;9.03;;;;;;;9.84;40.77;96053.75;4970717;28;20433;-69
2021/03/02 09:04:16;;;;;;;18.57;9.97;;;;;;;9.72;38.23;96046.34;4970735;28;20432;-72
2021/03/02 09:06:45;;;;;;;10.33;5.80;;;;;;;9.71;37.95;96058.13;4954697;28;20420;-70
2021/03/02 09:09:12;;;;;;;8.63;5.43;;;;;;;9.86;37.14;96064.88;4970989;28;20433;-69
2021/03/02 09:11:47;;;;;;;9.37;5.97;;;;;;;10.02;37.73;96063.34;4970456;28;20968;-69
2021/03/02 09:14:17;;;;;;;13.37;6.83;;;;;;;10.33;38.10;96054.44;4970836;28;20798;-72
2021/03/02 09:16:49;;;;;;;13.33;7.67;;;;;;;10.68;36.85;96065.88;4970635;28;20480;-70
2021/03/02 09:19:29;;;;;;;12.30;6.73;;;;;;;10.58;37.02;96068.88;4970750;28;20426;-70
2021/03/02 09:22:05;;;;;;;20.63;8.10;;;;;;;10.81;36.63;96061.47;4990097;28;20439;-69
2021/03/02 09:24:36;;;;;;;7.17;4.77;;;;;;;10.92;35.10;96062.69;5011837;28;20435;-71
2021/03/02 09:27:15;;;;;;;9.10;4.83;;;;;;;10.50;34.23;96061.66;5011662;28;20519;-71
2021/03/02 09:29:51;;;;;;;7.90;4.17;;;;;;;10.97;33.88;96067.88;5011574;28;20426;-69
2021/03/02 09:32:22;;;;;;;8.97;5.27;;;;;;;10.92;33.43;96048.53;5010348;28;20463;-70
2021/03/02 09:34:48;;;;;;;8.07;5.37;;;;;;;11.20;34.25;96056.94;5010218;28;20790;-69
2021/03/02 09:37:17;;;;;;;9.50;5.73;;;;;;;11.14;33.49;96059.03;4994209;28;20463;-70
2021/03/02 09:40:04;;;;;;;6.40;4.83;;;;;;;11.10;33.67;96056.19;5010318;28;20181;-69
2021/03/02 09:42:31;;;;;;;11.73;4.90;;;;;;;11.22;34.01;96050.16;5010809;28;20436;-69
2021/03/02 09:45:13;;;;;;;7.20;4.77;;;;;;;11.66;33.73;96048.09;5010253;28;20517;-69
2021/03/02 09:47:38;;;;;;;7.63;5.07;;;;;;;11.26;34.41;96053.00;5026772;28;20814;-70
2021/03/02 09:50:08;;;;;;;7.00;4.20;;;;;;;11.12;34.02;96053.22;5011399;28;20431;-71
2021/03/02 09:52:52;;;;;;;5.33;4.10;;;;;;;11.30;34.81;96048.59;5011413;28;20231;-72
2021/03/02 09:55:24;;;;;;;8.40;4.73;;;;;;;11.24;34.46;96047.97;5011385;28;20412;-71
2021/03/02 09:57:55;;;;;;;6.60;4.87;;;;;;;11.02;34.41;96050.88;5011538;28;20511;-72
2021/03/02 10:00:31;;;;;;;4.80;4.10;;;;;;;11.23;34.35;96046.41;5010193;28;20816;-70
2021/03/02 10:03:03;;;;;;;6.33;4.37;;;;;;;11.47;33.48;96032.47;5011485;28;20416;-69
2021/03/02 10:05:44;;;;;;;7.03;4.30;;;;;;;11.82;33.38;96037.66;5011277;28;20965;-70
2021/03/02 10:08:37;;;;;;;7.27;4.30;;;;;;;12.15;34.54;96032.38;5011381;28;20461;-70
2021/03/02 10:11:23;;;;;;;5.33;3.73;;;;;;;12.24;32.66;96029.66;5011411;28;20416;-71
2021/03/02 10:13:53;;;;;;;6.67;4.23;;;;;;;12.50;32.16;96026.75;5010589;28;20492;-70
2021/03/02 10:16:35;;;;;;;8.90;4.30;;;;;;;12.73;33.36;96022.56;5011251;28;20411;-71
2021/03/02 10:19:17;;;;;;;5.50;3.67;;;;;;;12.68;32.23;96015.56;5011584;28;20847;-71
2021/03/02 10:21:52;;;;;;;7.90;4.30;;;;;;;12.64;32.06;96022.69;5011041;28;20419;-68
2021/03/02 10:24:25;;;;;;;9.70;4.60;;;;;;;12.38;32.39;96012.19;5011365;28;20770;-71
2021/03/02 10:26:52;;;;;;;12.00;4.40;;;;;;;12.40;32.33;96019.88;5010903;28;20447;-70
2021/03/02 10:29:17;;;;;;;4.93;2.97;;;;;;;12.48;32.66;96011.00;5014235;28;20420;-72
2021/03/02 10:31:43;;;;;;;7.37;3.73;;;;;;;12.48;32.11;96005.66;5014502;28;20486;-70
2021/03/02 10:34:10;;;;;;;6.97;4.37;;;;;;;12.60;32.47;96010.25;5015020;28;20177;-70
2021/03/02 10:36:37;;;;;;;5.67;3.83;;;;;;;12.89;32.02;96006.66;5013295;28;20195;-71
2021/03/02 10:39:05;;;;;;;7.53;4.47;;;;;;;13.25;32.23;95999.81;5013384;28;20426;-69
2021/03/02 10:41:30;;;;;;;9.67;4.10;;;;;;;13.58;32.20;96005.06;5014701;28;20424;-69
2021/03/02 10:43:56;;;;;;;8.10;3.73;;;;;;;13.41;30.56;96001.50;5014714;28;20482;-68
2021/03/02 10:46:26;;;;;;;5.67;3.90;;;;;;;13.57;31.77;95990.06;5012939;28;20271;-71
2021/03/02 10:48:51;;;;;;;6.67;4.20;;;;;;;13.65;31.06;95994.56;5014239;28;20644;-69
2021/03/02 10:51:17;;;;;;;6.87;4.67;;;;;;;13.31;32.06;95982.38;5012679;28;20574;-70
2021/03/02 10:53:43;;;;;;;5.67;3.60;;;;;;;13.42;30.00;95986.19;5014200;28;20220;-71
2021/03/02 10:56:09;;;;;;;6.27;4.40;;;;;;;13.14;32.18;95972.63;5013959;28;20695;-69
2021/03/02 10:58:34;;;;;;;6.53;4.30;;;;;;;13.25;31.02;95975.69;5014220;28;20447;-69
2021/03/02 11:01:00;;;;;;;19.50;5.13;;;;;;;13.39;30.96;95976.91;5013429;28;20286;-71
2021/03/02 11:03:26;;;;;;;6.30;4.47;;;;;;;13.52;31.53;95966.94;5013385;28;20181;-70
2021/03/02 11:05:51;;;;;;;9.20;4.57;;;;;;;13.62;31.02;95969.16;5014155;28;20177;-70
2021/03/02 11:08:20;;;;;;;7.33;4.40;;;;;;;13.59;30.88;95955.66;5014185;28;20652;-69
2021/03/02 11:10:46;;;;;;;7.83;4.70;;;;;;;14.15;30.63;95958.44;5014083;28;20177;-69
2021/03/02 11:13:13;;;;;;;9.20;4.47;;;;;;;14.32;29.43;95951.97;5012985;28;20466;-68
2021/03/02 11:15:39;;;;;;;8.70;4.33;;;;;;;14.25;29.62;95947.97;5012619;28;20196;-70
2021/03/02 11:18:04;;;;;;;7.33;4.30;;;;;;;14.10;31.19;95945.22;5014071;28;20428;-69
2021/03/02 11:20:30;;;;;;;6.10;4.23;;;;;;;14.22;28.88;95942.50;5013708;28;20169;-68
2021/03/02 11:22:55;;;;;;;7.93;4.27;;;;;;;13.94;29.48;95940.56;5013942;28;20177;-69
2021/03/02 11:25:21;;;;;;;8.57;4.37;;;;;;;13.61;30.33;95929.25;5013428;28;20231;-72
2021/03/02 11:27:47;;;;;;;12.87;4.13;;;;;;;13.83;31.67;95927.97;5013274;28;20176;-69
2021/03/02 11:30:13;;;;;;;15.97;4.37;;;;;;;14.19;30.15;95927.06;5012431;28;20647;-69
2021/03/02 11:32:39;;;;;;;7.97;4.17;;;;;;;13.99;29.07;95926.13;5012621;28;20255;-69
2021/03/02 11:35:06;;;;;;;5.70;4.20;;;;;;;13.64;29.99;95920.53;5012302;28;20435;-69